メインページ
METAR-TAF:

METAR-TAF

空港 :

ブダペスト, ハンガリー

リスト・フェレンツ国際空港

緯度: 47-26N, 経度: 019-16E, 海抜: 151m

現時点の気象観測

当レポートは21分前の11:30(UTC)に作成
西/北西の風 17kt
気温 20°C
湿度 64%
気圧 1014 hPa
視程10km以上
高度3300ftの雲はほとんどない, 積乱雲.
高度4000ftの雲は散在している
高度20000ftの千切れ雲あり

METAR: LHBP 241130Z 30017KT 9999 FEW033CB SCT040 BKN200 20/13 Q1014 NOSIG

時間: 13:51 (11:51 UTC)

予報

当レポートは36分前の11:15(UTC)に作成
予報は24日の 12時(UTC)から 25日の 12時(UTC)まで有効
北西の風 15kt、最大25ktの突風を伴う
視程10km以上
高度3800ftの雲は散在している
高度9000ftの雲は散在している
高度14000ftの千切れ雲あり
24日の 12時(UTC)から 24日の 15時(UTC)まで一時的に
視程: 7000m
高度2500ftの雲は散在している, 積乱雲.
高度3500ftの雲は散在している
高度8000ftの千切れ雲あり
にわか雨, 激しい雷雨, 雨
24日の 16時(UTC)から 24日の 18時(UTC)まで徐々に
北西の風 10kt
視程10km以上
1,500メートル以下は雲なし、積乱雲なし
25日の 07時(UTC)から 25日の 09時(UTC)まで徐々に
高度3600ftの雲は散在している
25日の 09時(UTC)から 25日の 12時(UTC)まで一時的に
北西の風 5kt
高度4000ftの千切れ雲あり

TAF: LHBP 241115Z 2412/2512 31015G25KT 9999 SCT038 SCT090 BKN140 TEMPO 2412/2415 7000 SHRA TSRA SCT025CB SCT035 BKN080 BECMG 2416/2418 32010KT CAVOK BECMG 2507/2509 SCT036 TEMPO 2509/2512 31005KT BKN040

4,000以上の空港の気象観測と天気予報(METAR報とTAF報)

利用可能な観測所は地図上に黄色い丸と赤い丸で示す。

丸の上にカーソルを重ねると観測所名を参照できる。

次にクリックすると気象観測と天気予報を参照できる。

マップの切り替え:黒色「×」印の緑ボタンをクリックして拡大、「-」印の緑ボタンをクリックして縮小、緑色の三角印をクリックして隣りの地図に切り替え


METAR-TAF: